createdAt,value
2022-09-28T00:01:17.568Z,6.43
2022-09-28T00:03:47.467Z,5.82
2022-09-28T00:06:18.498Z,7.28
2022-09-28T00:08:46.837Z,6.15
2022-09-28T00:11:16.373Z,9.85
2022-09-28T00:13:46.085Z,12.80
2022-09-28T00:16:16.866Z,7.60
2022-09-28T00:18:47.532Z,7.43
2022-09-28T00:21:17.348Z,7.53
2022-09-28T00:23:59.849Z,9.20
2022-09-28T00:26:28.599Z,8.30
2022-09-28T00:28:58.568Z,7.03
2022-09-28T00:31:26.945Z,6.97
2022-09-28T00:33:56.968Z,8.32
2022-09-28T00:36:27.009Z,9.43
2022-09-28T00:38:55.636Z,6.57
2022-09-28T00:41:24.371Z,5.93
2022-09-28T00:43:52.444Z,10.20
2022-09-28T00:46:24.934Z,8.07
2022-09-28T00:51:27.419Z,6.47
2022-09-28T00:53:57.051Z,9.27
2022-09-28T00:56:28.098Z,6.45
2022-09-28T00:58:56.065Z,7.43
2022-09-28T01:01:24.101Z,10.82
2022-09-28T01:03:52.136Z,11.55
2022-09-28T01:06:22.568Z,7.97
2022-09-28T01:08:54.912Z,7.50
2022-09-28T01:11:22.904Z,10.13
2022-09-28T01:13:53.345Z,12.07
2022-09-28T01:16:30.893Z,8.38
2022-09-28T01:19:07.923Z,11.27
2022-09-28T01:21:47.165Z,10.10
2022-09-28T01:24:40.240Z,11.00
2022-09-28T01:27:15.923Z,9.43
2022-09-28T01:29:55.409Z,9.82
2022-09-28T01:32:44.645Z,13.00
2022-09-28T01:35:16.294Z,10.82
2022-09-28T01:37:52.011Z,12.33
2022-09-28T01:40:22.188Z,11.23
2022-09-28T01:42:56.328Z,12.65
2022-09-28T01:45:28.525Z,17.17
2022-09-28T01:47:59.639Z,14.52
2022-09-28T01:50:31.418Z,15.73
2022-09-28T01:53:04.793Z,13.32
2022-09-28T01:55:35.706Z,13.60
2022-09-28T01:58:12.574Z,9.63
2022-09-28T02:00:45.689Z,10.07
2022-09-28T02:03:18.647Z,11.85
2022-09-28T02:05:50.543Z,13.93
2022-09-28T02:08:25.397Z,11.60
2022-09-28T02:10:59.197Z,11.85
2022-09-28T02:13:33.949Z,14.38
2022-09-28T02:16:08.091Z,19.63
2022-09-28T02:18:36.164Z,15.90
2022-09-28T02:21:09.883Z,16.30
2022-09-28T02:23:41.054Z,18.65
2022-09-28T02:26:13.312Z,19.20
2022-09-28T02:28:42.605Z,20.80
2022-09-28T02:31:10.354Z,25.25
2022-09-28T02:33:40.926Z,20.75
2022-09-28T02:36:08.860Z,22.33
2022-09-28T02:38:37.410Z,26.48
2022-09-28T02:41:10.106Z,20.15
2022-09-28T02:43:50.310Z,27.75
2022-09-28T02:46:30.443Z,25.92
2022-09-28T02:49:21.872Z,23.27
2022-09-28T02:52:09.229Z,21.20
2022-09-28T02:55:11.520Z,24.52
2022-09-28T02:57:53.137Z,24.70
2022-09-28T03:00:23.940Z,27.50
2022-09-28T03:03:03.079Z,23.55
2022-09-28T03:05:36.705Z,23.65
2022-09-28T03:08:07.879Z,27.65
2022-09-28T03:10:41.355Z,25.58
2022-09-28T03:13:10.132Z,25.20
2022-09-28T03:15:39.226Z,30.23
2022-09-28T03:18:07.043Z,29.13
2022-09-28T03:20:35.281Z,24.60
2022-09-28T03:25:50.641Z,29.92
2022-09-28T03:28:18.403Z,29.45
2022-09-28T03:30:47.482Z,30.23
2022-09-28T03:33:15.105Z,34.28
2022-09-28T03:35:42.764Z,28.23
2022-09-28T03:38:10.425Z,28.85
2022-09-28T03:40:38.088Z,26.17
2022-09-28T03:43:05.790Z,30.08
2022-09-28T03:45:33.437Z,32.38
2022-09-28T03:48:02.748Z,29.40
2022-09-28T03:50:30.437Z,24.83
2022-09-28T03:53:03.362Z,30.27
2022-09-28T03:55:31.353Z,21.40
2022-09-28T03:57:59.033Z,26.48
2022-09-28T04:00:26.674Z,34.25
2022-09-28T04:02:55.082Z,35.90
2022-09-28T04:05:24.197Z,21.42
2022-09-28T04:07:53.254Z,25.70
2022-09-28T04:10:20.896Z,19.25
2022-09-28T04:12:49.741Z,23.40
2022-09-28T04:15:17.942Z,20.95
2022-09-28T04:17:45.768Z,25.00
2022-09-28T04:20:13.389Z,28.98
2022-09-28T04:22:43.109Z,28.33
2022-09-28T04:25:10.878Z,25.70
2022-09-28T04:27:56.672Z,27.92
2022-09-28T04:30:24.680Z,20.45
2022-09-28T04:32:52.324Z,21.63
2022-09-28T04:35:20.026Z,21.58
2022-09-28T04:37:49.023Z,20.40
2022-09-28T04:40:16.753Z,18.60
2022-09-28T04:42:44.651Z,20.10
2022-09-28T04:45:12.344Z,30.20
2022-09-28T04:47:40.102Z,27.48
2022-09-28T04:50:08.662Z,25.25
2022-09-28T04:52:37.325Z,30.70
2022-09-28T04:55:07.402Z,22.70
2022-09-28T04:57:35.335Z,20.27
2022-09-28T05:00:03.215Z,24.27
2022-09-28T05:02:30.901Z,20.90
2022-09-28T05:04:58.932Z,30.20
2022-09-28T05:07:26.899Z,26.35
2022-09-28T05:09:55.270Z,22.42
2022-09-28T05:12:24.484Z,30.55
2022-09-28T05:14:52.282Z,30.77
2022-09-28T05:17:20.078Z,29.52
2022-09-28T05:19:47.740Z,24.83
2022-09-28T05:22:15.841Z,25.35
2022-09-28T05:24:43.689Z,34.40
2022-09-28T05:27:11.433Z,29.00
2022-09-28T05:29:40.466Z,29.02
2022-09-28T05:32:08.209Z,21.23
2022-09-28T05:34:35.979Z,23.50
2022-09-28T05:37:03.675Z,24.20
2022-09-28T05:39:31.342Z,23.05
2022-09-28T05:41:59.079Z,27.23
2022-09-28T05:44:26.882Z,34.13
2022-09-28T05:46:55.938Z,35.63
2022-09-28T05:49:23.640Z,36.13
2022-09-28T05:51:51.270Z,33.40
2022-09-28T05:54:18.996Z,24.15
2022-09-28T05:56:46.815Z,25.08
2022-09-28T05:59:14.505Z,25.75
2022-09-28T06:01:42.338Z,26.02
2022-09-28T06:04:11.443Z,25.65
2022-09-28T06:06:39.356Z,34.50
2022-09-28T06:09:07.072Z,40.40
2022-09-28T06:11:34.895Z,25.75
2022-09-28T06:14:02.574Z,26.38
2022-09-28T06:16:30.662Z,32.92
2022-09-28T06:18:58.418Z,30.98
2022-09-28T06:21:27.646Z,26.90
2022-09-28T06:23:55.271Z,28.90
2022-09-28T06:26:22.917Z,26.50
2022-09-28T06:28:50.573Z,33.40
2022-09-28T06:31:23.554Z,23.90
2022-09-28T06:33:52.221Z,24.88
2022-09-28T06:36:21.359Z,25.55
2022-09-28T06:38:50.683Z,21.55
2022-09-28T06:41:18.501Z,21.63
2022-09-28T06:43:46.489Z,26.48
2022-09-28T06:46:14.906Z,20.13
2022-09-28T06:48:44.287Z,21.77
2022-09-28T06:51:12.177Z,22.48
2022-09-28T06:53:39.832Z,20.60
2022-09-28T06:56:11.396Z,20.27
2022-09-28T06:58:39.212Z,19.70
2022-09-28T07:01:07.164Z,19.90
2022-09-28T07:03:34.872Z,19.63
2022-09-28T07:06:02.692Z,16.08
2022-09-28T07:08:30.462Z,17.42
2022-09-28T07:10:58.139Z,15.68
2022-09-28T07:13:48.468Z,14.57
2022-09-28T07:16:17.062Z,16.83
2022-09-28T07:18:44.886Z,16.38
2022-09-28T07:21:23.865Z,17.38
2022-09-28T07:23:54.676Z,15.88
2022-09-28T07:26:24.482Z,14.38
2022-09-28T07:28:55.806Z,14.85
2022-09-28T07:31:25.221Z,15.20
2022-09-28T07:33:54.050Z,15.70
2022-09-28T07:36:22.707Z,13.07
2022-09-28T07:38:50.540Z,12.32
2022-09-28T07:41:22.321Z,13.25
2022-09-28T07:43:50.820Z,12.68
2022-09-28T07:46:21.213Z,13.88
2022-09-28T07:48:51.778Z,13.25
2022-09-28T07:51:21.116Z,14.18
2022-09-28T07:53:49.127Z,15.73
2022-09-28T07:56:18.224Z,14.85
2022-09-28T07:58:48.163Z,14.60
2022-09-28T08:01:16.584Z,11.20
2022-09-28T08:03:47.998Z,13.07
2022-09-28T08:06:17.773Z,13.43
2022-09-28T08:08:46.015Z,12.35
2022-09-28T08:11:15.154Z,11.68
2022-09-28T08:13:43.915Z,13.50
2022-09-28T08:16:11.883Z,12.20
2022-09-28T08:18:39.632Z,12.23
2022-09-28T08:21:26.194Z,10.57
2022-09-28T08:23:53.943Z,8.63
2022-09-28T08:26:21.749Z,8.68
2022-09-28T08:28:49.423Z,9.07
2022-09-28T08:31:17.128Z,9.82
2022-09-28T08:33:45.080Z,9.60
2022-09-28T08:36:14.144Z,12.35
2022-09-28T08:38:41.805Z,10.07
2022-09-28T08:41:18.468Z,13.05
2022-09-28T08:44:15.518Z,9.63
2022-09-28T08:46:47.716Z,9.65
2022-09-28T08:49:25.469Z,11.50
2022-09-28T08:51:59.010Z,11.95
2022-09-28T08:54:34.845Z,11.02
2022-09-28T08:57:06.628Z,10.18
2022-09-28T08:59:46.426Z,12.02
2022-09-28T09:02:19.200Z,10.10
2022-09-28T09:04:47.140Z,9.93
2022-09-28T09:07:33.199Z,9.02
2022-09-28T09:10:12.703Z,11.07
2022-09-28T09:12:48.396Z,8.57
2022-09-28T09:15:48.129Z,7.07
2022-09-28T09:18:26.136Z,7.75
2022-09-28T09:20:57.524Z,7.25
2022-09-28T09:23:37.231Z,6.50
2022-09-28T09:26:14.668Z,6.43
2022-09-28T09:29:18.334Z,6.70
2022-09-28T09:32:04.338Z,10.27
2022-09-28T09:34:49.077Z,8.45
2022-09-28T09:37:26.426Z,9.88
2022-09-28T09:40:16.244Z,12.25
2022-09-28T09:42:58.001Z,9.23
2022-09-28T09:45:43.856Z,8.77
2022-09-28T09:48:18.935Z,7.88
2022-09-28T09:50:51.564Z,7.93
2022-09-28T09:53:25.275Z,7.47
2022-09-28T09:55:57.392Z,7.15
2022-09-28T09:58:29.611Z,6.88
2022-09-28T10:01:03.117Z,6.60
2022-09-28T10:03:34.062Z,6.88
2022-09-28T10:06:07.406Z,7.38
2022-09-28T10:08:40.743Z,7.65
2022-09-28T10:11:16.518Z,7.50
2022-09-28T10:13:44.806Z,7.32
2022-09-28T10:16:12.720Z,6.70
2022-09-28T10:18:40.502Z,6.55
2022-09-28T10:21:12.645Z,5.18
2022-09-28T10:23:42.177Z,5.55
2022-09-28T10:26:14.620Z,5.13
2022-09-28T10:31:40.111Z,5.90
2022-09-28T10:34:09.198Z,4.03
2022-09-28T10:36:48.615Z,3.58
2022-09-28T10:39:31.278Z,3.28
2022-09-28T10:44:34.640Z,2.17
2022-09-28T10:47:04.215Z,5.40
2022-09-28T10:49:45.861Z,3.78
2022-09-28T10:55:03.630Z,3.08
2022-09-28T10:57:35.729Z,3.85
2022-09-28T11:00:06.927Z,4.55
2022-09-28T11:02:37.402Z,3.00
2022-09-28T11:05:08.171Z,2.65
2022-09-28T11:07:46.306Z,6.63
2022-09-28T11:10:22.314Z,6.63
2022-09-28T11:12:52.771Z,5.95
2022-09-28T11:15:22.324Z,7.30
2022-09-28T11:17:50.088Z,6.63
2022-09-28T11:20:35.956Z,6.10
2022-09-28T11:23:20.517Z,8.32
2022-09-28T11:26:05.710Z,6.72
2022-09-28T11:28:37.839Z,6.80
2022-09-28T11:31:08.329Z,9.98
2022-09-28T11:33:38.384Z,8.20
2022-09-28T11:36:28.353Z,5.63
2022-09-28T11:39:06.393Z,5.20
2022-09-28T11:42:00.533Z,7.20
2022-09-28T11:44:46.516Z,6.10
2022-09-28T11:47:37.808Z,4.30
2022-09-28T11:50:17.850Z,4.63
2022-09-28T11:52:56.106Z,4.90
2022-09-28T11:55:34.465Z,4.53
2022-09-28T11:58:09.857Z,4.53
2022-09-28T12:00:46.520Z,4.30
2022-09-28T12:03:17.310Z,4.65
2022-09-28T12:05:49.551Z,4.63
2022-09-28T12:08:25.416Z,4.93
2022-09-28T12:10:59.377Z,5.97
2022-09-28T12:13:35.376Z,14.95
2022-09-28T12:16:32.656Z,4.88
2022-09-28T12:19:08.187Z,4.13
2022-09-28T12:21:43.701Z,3.20
2022-09-28T12:24:18.779Z,8.35
2022-09-28T12:27:13.867Z,4.05
2022-09-28T12:29:47.492Z,5.70
2022-09-28T12:32:29.405Z,3.45
2022-09-28T12:34:58.684Z,4.05
2022-09-28T12:37:41.324Z,5.68
2022-09-28T12:43:33.971Z,5.07
2022-09-28T12:46:20.786Z,2.90
2022-09-28T12:52:18.970Z,3.05
2022-09-28T12:55:04.751Z,3.05
2022-09-28T12:57:42.010Z,2.65
2022-09-28T13:00:13.228Z,3.10
2022-09-28T13:03:03.077Z,4.10
2022-09-28T13:05:49.427Z,2.80
2022-09-28T13:08:27.040Z,2.60
2022-09-28T13:11:08.019Z,2.92
2022-09-28T13:13:48.458Z,2.75
2022-09-28T13:16:23.800Z,4.28
2022-09-28T13:18:58.772Z,1.73
2022-09-28T13:21:37.961Z,2.22
2022-09-28T13:24:28.186Z,2.42
2022-09-28T13:27:00.494Z,2.38
2022-09-28T13:29:29.025Z,2.00
2022-09-28T13:32:00.191Z,2.40
2022-09-28T13:34:30.569Z,3.95
2022-09-28T13:37:24.027Z,3.03
2022-09-28T13:39:53.098Z,5.22
2022-09-28T13:43:02.403Z,3.45
2022-09-28T13:45:40.003Z,6.38
2022-09-28T13:48:15.673Z,5.38
2022-09-28T13:51:05.777Z,4.57
2022-09-28T13:53:54.010Z,6.35
2022-09-28T13:56:31.219Z,6.13
2022-09-28T13:59:05.270Z,8.43
2022-09-28T14:01:38.610Z,4.40
2022-09-28T14:04:16.663Z,5.50
2022-09-28T14:06:51.396Z,11.10
2022-09-28T14:09:42.703Z,8.30
2022-09-28T14:12:46.955Z,9.27
2022-09-28T14:15:45.163Z,18.52
2022-09-28T14:18:32.606Z,21.52
2022-09-28T14:21:30.835Z,17.23
2022-09-28T14:24:13.181Z,10.70
2022-09-28T14:27:04.968Z,9.80
2022-09-28T14:29:35.239Z,8.13
2022-09-28T14:32:06.747Z,8.55
2022-09-28T14:34:38.046Z,9.65
2022-09-28T14:37:38.385Z,7.18
2022-09-28T14:40:35.538Z,7.13
2022-09-28T14:43:28.058Z,8.13
2022-09-28T14:46:34.024Z,4.75
2022-09-28T14:49:03.237Z,8.57
2022-09-28T14:52:04.079Z,8.30
2022-09-28T14:54:42.858Z,6.47
2022-09-28T14:57:18.291Z,3.92
2022-09-28T14:59:48.154Z,4.10
2022-09-28T15:02:21.285Z,2.58
2022-09-28T15:04:53.110Z,3.13
2022-09-28T15:07:24.421Z,2.30
2022-09-28T15:09:53.828Z,2.67
2022-09-28T15:12:25.221Z,4.60
2022-09-28T15:14:57.237Z,6.85
2022-09-28T15:17:28.135Z,4.80
2022-09-28T15:20:25.286Z,3.53
2022-09-28T15:22:57.498Z,3.10
2022-09-28T15:25:27.395Z,2.50
2022-09-28T15:27:57.033Z,4.68
2022-09-28T15:30:28.871Z,8.00
2022-09-28T15:33:17.778Z,5.75
2022-09-28T15:35:47.745Z,4.03
2022-09-28T15:38:18.370Z,5.30
2022-09-28T15:40:47.628Z,3.53
2022-09-28T15:43:26.894Z,3.78
2022-09-28T15:46:02.906Z,5.85
2022-09-28T15:48:32.808Z,3.25
2022-09-28T15:51:11.033Z,3.47
2022-09-28T15:53:46.392Z,3.22
2022-09-28T15:56:53.103Z,3.80
2022-09-28T15:59:35.665Z,3.17
2022-09-28T16:02:12.621Z,3.88
2022-09-28T16:04:44.233Z,3.40
2022-09-28T16:07:20.698Z,4.63
2022-09-28T16:10:04.729Z,3.75
2022-09-28T16:12:43.359Z,4.28
2022-09-28T16:15:20.168Z,3.60
2022-09-28T16:17:54.715Z,2.20
2022-09-28T16:20:29.142Z,1.90
2022-09-28T16:22:59.540Z,1.17
2022-09-28T16:25:27.970Z,1.38
2022-09-28T16:27:56.850Z,1.08
2022-09-28T16:30:27.163Z,2.15
2022-09-28T16:32:58.146Z,3.65
2022-09-28T16:35:28.704Z,2.10
2022-09-28T16:38:05.664Z,1.90
2022-09-28T16:40:34.410Z,4.30
2022-09-28T16:43:05.458Z,4.40
2022-09-28T16:45:35.132Z,3.70
2022-09-28T16:48:05.492Z,3.00
2022-09-28T16:50:33.230Z,3.55
2022-09-28T16:53:25.028Z,2.85
2022-09-28T16:55:52.754Z,3.75
2022-09-28T16:58:20.393Z,2.75
2022-09-28T17:00:48.065Z,2.97
2022-09-28T17:03:19.314Z,5.35
2022-09-28T17:05:50.917Z,4.70
2022-09-28T17:08:21.608Z,3.72
2022-09-28T17:13:42.169Z,8.23
2022-09-28T17:16:14.114Z,7.60
2022-09-28T17:18:43.332Z,4.63
2022-09-28T17:21:15.749Z,3.72
2022-09-28T17:26:19.415Z,2.65
2022-09-28T17:28:47.180Z,3.00
2022-09-28T17:31:16.257Z,4.80
2022-09-28T17:33:45.845Z,5.10
2022-09-28T17:36:16.733Z,3.55
2022-09-28T17:38:45.055Z,5.35
2022-09-28T17:41:18.070Z,4.82
2022-09-28T17:43:48.046Z,4.15
2022-09-28T17:46:28.309Z,4.32
2022-09-28T17:48:59.653Z,5.55
2022-09-28T17:51:28.333Z,5.32
2022-09-28T17:53:56.843Z,6.88
2022-09-28T17:56:27.498Z,5.97
2022-09-28T17:59:00.812Z,8.18
2022-09-28T18:01:33.707Z,5.55
2022-09-28T18:04:05.261Z,5.32
2022-09-28T18:06:33.879Z,10.93
2022-09-28T18:09:02.782Z,8.00
2022-09-28T18:11:30.805Z,8.48
2022-09-28T18:13:58.527Z,7.93
2022-09-28T18:16:27.901Z,7.35
2022-09-28T18:18:55.776Z,9.32
2022-09-28T18:21:24.838Z,6.43
2022-09-28T18:23:52.475Z,6.20
2022-09-28T18:26:20.284Z,7.40
2022-09-28T18:28:48.150Z,9.90
2022-09-28T18:31:19.106Z,6.80
2022-09-28T18:33:48.300Z,6.55
2022-09-28T18:36:15.977Z,11.68
2022-09-28T18:38:45.079Z,10.20
2022-09-28T18:41:15.774Z,11.93
2022-09-28T18:43:44.177Z,6.45
2022-09-28T18:46:12.745Z,8.57
2022-09-28T18:48:41.598Z,13.00
2022-09-28T18:51:10.156Z,8.18
2022-09-28T18:53:38.040Z,7.88
2022-09-28T18:56:09.362Z,12.07
2022-09-28T18:58:37.951Z,7.47
2022-09-28T19:01:28.911Z,13.75
2022-09-28T19:03:59.806Z,8.45
2022-09-28T19:06:27.544Z,12.40
2022-09-28T19:08:56.780Z,14.27
2022-09-28T19:11:26.758Z,9.15
2022-09-28T19:13:55.322Z,10.98
2022-09-28T19:16:25.100Z,9.63
2022-09-28T19:18:53.635Z,9.48
2022-09-28T19:21:22.170Z,10.02
2022-09-28T19:23:50.220Z,25.13
2022-09-28T19:26:20.394Z,19.45
2022-09-28T19:28:50.012Z,17.85
2022-09-28T19:31:18.364Z,17.42
2022-09-28T19:33:46.724Z,24.27
2022-09-28T19:36:17.703Z,13.40
2022-09-28T19:38:46.241Z,14.60
2022-09-28T19:41:39.471Z,20.50
2022-09-28T19:44:15.770Z,26.38
2022-09-28T19:46:43.724Z,15.43
2022-09-28T19:49:13.375Z,27.90
2022-09-28T19:51:56.555Z,12.52
2022-09-28T19:54:36.323Z,23.77
2022-09-28T19:57:07.432Z,13.70
2022-09-28T19:59:37.376Z,24.63
2022-09-28T20:02:06.423Z,24.52
2022-09-28T20:04:34.191Z,15.82
2022-09-28T20:07:02.097Z,15.60
2022-09-28T20:09:29.803Z,15.52
2022-09-28T20:11:57.532Z,21.50
2022-09-28T20:14:27.906Z,17.92
2022-09-28T20:16:59.671Z,14.88
2022-09-28T20:19:42.367Z,28.35
2022-09-28T20:22:10.075Z,30.77
2022-09-28T20:24:37.832Z,17.20
2022-09-28T20:27:05.660Z,17.42
2022-09-28T20:29:33.755Z,27.27
2022-09-28T20:32:03.886Z,17.65
2022-09-28T20:34:33.451Z,17.52
2022-09-28T20:37:01.277Z,16.13
2022-09-28T20:39:29.235Z,17.40
2022-09-28T20:41:57.641Z,18.00
2022-09-28T20:44:25.379Z,25.52
2022-09-28T20:46:53.250Z,19.00
2022-09-28T20:49:22.319Z,30.60
2022-09-28T20:51:49.995Z,31.55
2022-09-28T20:54:17.727Z,21.17
2022-09-28T20:56:48.009Z,20.75
2022-09-28T20:59:15.758Z,27.35
2022-09-28T21:01:43.498Z,17.17
2022-09-28T21:04:11.807Z,18.58
2022-09-28T21:06:42.647Z,13.10
2022-09-28T21:09:12.270Z,14.00
2022-09-28T21:11:40.243Z,19.48
2022-09-28T21:14:10.097Z,16.05
2022-09-28T21:16:38.628Z,19.33
2022-09-28T21:19:06.361Z,14.23
2022-09-28T21:21:34.408Z,13.80
2022-09-28T21:24:03.555Z,26.67
2022-09-28T21:26:32.664Z,16.05
2022-09-28T21:29:01.829Z,13.82
2022-09-28T21:31:32.461Z,22.40
2022-09-28T21:34:00.674Z,22.30
2022-09-28T21:36:28.371Z,20.15
2022-09-28T21:38:56.193Z,26.83
2022-09-28T21:41:26.153Z,30.13
2022-09-28T21:43:53.878Z,30.60
2022-09-28T21:46:21.880Z,17.38
2022-09-28T21:48:53.343Z,23.88
2022-09-28T21:51:21.548Z,31.90
2022-09-28T21:53:49.657Z,13.57
2022-09-28T21:56:17.732Z,24.60
2022-09-28T21:58:47.266Z,13.23
2022-09-28T22:01:18.147Z,12.40
2022-09-28T22:03:47.903Z,28.65
2022-09-28T22:06:17.039Z,27.13
2022-09-28T22:08:44.874Z,21.42
2022-09-28T22:11:14.723Z,18.88
2022-09-28T22:13:43.922Z,21.55
2022-09-28T22:16:14.605Z,37.40
2022-09-28T22:18:42.889Z,34.35
2022-09-28T22:21:17.775Z,21.90
2022-09-28T22:23:46.117Z,27.33
2022-09-28T22:26:17.972Z,24.77
2022-09-28T22:28:47.773Z,27.33
2022-09-28T22:31:18.492Z,37.47
2022-09-28T22:33:46.382Z,39.13
2022-09-28T22:36:20.020Z,31.60
2022-09-28T22:38:49.372Z,28.15
2022-09-28T22:41:21.005Z,33.63
2022-09-28T22:43:50.081Z,21.23
2022-09-28T22:46:20.792Z,32.10
2022-09-28T22:48:49.645Z,29.20
2022-09-28T22:51:17.971Z,32.47
2022-09-28T22:53:46.320Z,32.53
2022-09-28T22:56:18.638Z,36.17
2022-09-28T22:58:47.209Z,21.45
2022-09-28T23:01:17.794Z,20.02
2022-09-28T23:03:47.322Z,33.22
2022-09-28T23:06:17.047Z,31.65
2022-09-28T23:08:45.467Z,28.58
2022-09-28T23:11:13.176Z,21.15
2022-09-28T23:13:40.853Z,25.45
2022-09-28T23:16:11.675Z,20.20
2022-09-28T23:18:40.808Z,29.50
2022-09-28T23:21:15.156Z,27.73
2022-09-28T23:23:42.947Z,18.10
2022-09-28T23:26:12.219Z,23.70
2022-09-28T23:28:39.982Z,31.02
2022-09-28T23:31:12.211Z,29.40
2022-09-28T23:33:40.037Z,41.05
2022-09-28T23:36:10.072Z,31.92
2022-09-28T23:38:38.118Z,25.02
2022-09-28T23:41:06.088Z,28.80
2022-09-28T23:43:33.839Z,17.85
2022-09-28T23:46:01.745Z,26.80
2022-09-28T23:48:29.482Z,28.95
2022-09-28T23:50:57.157Z,19.67
2022-09-28T23:53:26.280Z,20.85
2022-09-28T23:55:54.367Z,18.92
2022-09-28T23:58:22.465Z,22.35
